Time;durP1;ratioP1;P1;durP2;ratioP2;P2;SDS_P1;SDS_P2;PMS_P1;PMS_P2;Temp;Humidity;BMP_temperature;BMP_pressure;BME280_temperature;BME280_humidity;BME280_pressure;Samples;Min_cycle;Max_cycle;Signal;HPM_P1;HPM_P2
2022/01/31 00:01:30;;;;;;;20.93;19.93;;;;;;;;;;5092843;28;20790;-79
2022/01/31 00:03:57;;;;;;;21.37;20.27;;;;;;;;;;5093233;28;20301;-76
2022/01/31 00:06:24;;;;;;;20.73;19.73;;;;;;;;;;5093225;28;20276;-76
2022/01/31 00:08:52;;;;;;;20.70;19.60;;;;;;;;;;5092864;28;20225;-79
2022/01/31 00:11:19;;;;;;;19.60;18.70;;;;;;;;;;5092751;28;20265;-77
2022/01/31 00:13:56;;;;;;;19.60;18.70;;;;;;;;;;5093080;28;20229;-74
2022/01/31 00:16:31;;;;;;;21.97;20.23;;;;;;;;;;5092797;28;20190;-80
2022/01/31 00:18:57;;;;;;;22.50;20.97;;;;;;;;;;5093026;28;20209;-73
2022/01/31 00:21:24;;;;;;;20.73;19.73;;;;;;;;;;5092914;28;20244;-75
2022/01/31 00:23:51;;;;;;;20.60;19.67;;;;;;;;;;5092803;28;20199;-76
2022/01/31 00:26:17;;;;;;;21.20;19.93;;;;;;;;;;5092870;28;20216;-77
2022/01/31 00:28:44;;;;;;;19.43;18.53;;;;;;;;;;5092831;28;20271;-78
2022/01/31 00:31:11;;;;;;;20.30;19.10;;;;;;;;;;5092699;28;20261;-73
2022/01/31 00:33:39;;;;;;;20.10;19.20;;;;;;;;;;5092455;28;20233;-78
2022/01/31 00:36:06;;;;;;;19.57;18.67;;;;;;;;;;5092386;28;20288;-72
2022/01/31 00:38:33;;;;;;;20.67;19.67;;;;;;;;;;5092397;28;20190;-78
2022/01/31 00:40:59;;;;;;;20.30;19.30;;;;;;;;;;5092333;28;20280;-78
2022/01/31 00:43:26;;;;;;;21.40;20.30;;;;;;;;;;5092308;28;20233;-77
2022/01/31 00:46:00;;;;;;;22.27;20.90;;;;;;;;;;5092611;28;20247;-75
2022/01/31 00:48:29;;;;;;;20.43;19.43;;;;;;;;;;5092564;28;20239;-78
2022/01/31 00:50:57;;;;;;;20.97;19.97;;;;;;;;;;5092471;28;20697;-73
2022/01/31 00:53:24;;;;;;;22.67;21.00;;;;;;;;;;5092147;28;20739;-74
2022/01/31 00:55:51;;;;;;;21.03;19.73;;;;;;;;;;5092257;28;20204;-73
2022/01/31 00:58:17;;;;;;;18.90;18.00;;;;;;;;;;5092050;28;20280;-72
2022/01/31 01:00:44;;;;;;;21.87;20.03;;;;;;;;;;5092151;28;20272;-76
2022/01/31 01:03:11;;;;;;;22.13;20.17;;;;;;;;;;5092377;28;20229;-78
2022/01/31 01:05:37;;;;;;;23.93;22.13;;;;;;;;;;5092043;28;20272;-79
2022/01/31 01:08:06;;;;;;;20.70;19.57;;;;;;;;;;5092597;28;20239;-78
2022/01/31 01:10:33;;;;;;;21.53;20.33;;;;;;;;;;5092155;28;20706;-81
2022/01/31 01:13:00;;;;;;;20.60;19.50;;;;;;;;;;5092323;28;20293;-79
2022/01/31 01:15:26;;;;;;;22.03;20.10;;;;;;;;;;5092047;28;20233;-78
2022/01/31 01:17:53;;;;;;;22.77;21.03;;;;;;;;;;5091921;28;20284;-78
2022/01/31 01:20:20;;;;;;;21.90;20.23;;;;;;;;;;5092219;28;20232;-80
2022/01/31 01:22:47;;;;;;;21.80;20.37;;;;;;;;;;5092184;28;20226;-78
2022/01/31 01:25:16;;;;;;;24.17;22.23;;;;;;;;;;5092196;28;20613;-80
2022/01/31 01:27:45;;;;;;;22.57;21.23;;;;;;;;;;5091854;28;20237;-78
2022/01/31 01:30:14;;;;;;;20.97;19.80;;;;;;;;;;5091769;28;20674;-77
2022/01/31 01:32:48;;;;;;;22.90;21.33;;;;;;;;;;5091853;28;20189;-82
2022/01/31 01:35:15;;;;;;;21.20;19.90;;;;;;;;;;5092130;28;20639;-79
2022/01/31 01:37:42;;;;;;;20.07;19.07;;;;;;;;;;5092122;28;20230;-78
2022/01/31 01:40:09;;;;;;;20.33;19.23;;;;;;;;;;5092031;28;20200;-78
2022/01/31 01:42:37;;;;;;;20.00;18.90;;;;;;;;;;5092071;28;20190;-79
2022/01/31 01:45:04;;;;;;;22.60;20.93;;;;;;;;;;5091973;28;20190;-79
2022/01/31 01:47:31;;;;;;;20.53;19.40;;;;;;;;;;5091697;28;20739;-78
2022/01/31 01:49:57;;;;;;;21.67;20.47;;;;;;;;;;5091729;28;20557;-80
2022/01/31 01:52:24;;;;;;;23.57;22.07;;;;;;;;;;5091599;28;20699;-79
2022/01/31 01:54:51;;;;;;;22.00;20.43;;;;;;;;;;5092479;28;20285;-82
2022/01/31 01:57:18;;;;;;;22.27;20.87;;;;;;;;;;5091872;28;20234;-73
2022/01/31 01:59:47;;;;;;;21.43;19.90;;;;;;;;;;5091615;28;20325;-78
2022/01/31 02:02:13;;;;;;;22.00;20.60;;;;;;;;;;5091914;28;20186;-73
2022/01/31 02:04:41;;;;;;;21.27;20.10;;;;;;;;;;5091771;28;20277;-76
2022/01/31 02:07:09;;;;;;;26.77;21.03;;;;;;;;;;5091513;28;20695;-77
2022/01/31 02:09:42;;;;;;;21.30;20.20;;;;;;;;;;5094157;28;20198;-73
2022/01/31 02:12:09;;;;;;;21.00;19.90;;;;;;;;;;5095124;28;20304;-73
2022/01/31 02:14:36;;;;;;;21.23;20.03;;;;;;;;;;5095022;28;20290;-72
2022/01/31 02:17:04;;;;;;;24.23;22.83;;;;;;;;;;5095378;28;20198;-78
2022/01/31 02:19:31;;;;;;;23.00;21.57;;;;;;;;;;5095000;28;20284;-72
2022/01/31 02:21:59;;;;;;;23.07;21.87;;;;;;;;;;5095192;28;20272;-74
2022/01/31 02:24:26;;;;;;;22.33;21.03;;;;;;;;;;5095208;28;20229;-73
2022/01/31 02:26:52;;;;;;;21.60;20.50;;;;;;;;;;5094791;28;20288;-73
2022/01/31 02:29:19;;;;;;;20.20;19.10;;;;;;;;;;5095113;28;20225;-75
2022/01/31 02:31:46;;;;;;;20.07;19.07;;;;;;;;;;5094620;28;20268;-76
2022/01/31 02:34:13;;;;;;;20.10;19.10;;;;;;;;;;5095249;28;20277;-73
2022/01/31 02:36:40;;;;;;;19.30;18.30;;;;;;;;;;5094731;28;20707;-78
2022/01/31 02:39:08;;;;;;;19.30;18.30;;;;;;;;;;5095156;28;20237;-77
2022/01/31 02:41:39;;;;;;;21.17;20.07;;;;;;;;;;5094538;28;20233;-74
2022/01/31 02:44:13;;;;;;;21.80;20.23;;;;;;;;;;5094865;28;20244;-73
2022/01/31 02:46:40;;;;;;;21.63;20.53;;;;;;;;;;5095066;28;20193;-78
2022/01/31 02:49:07;;;;;;;25.60;23.43;;;;;;;;;;5094389;28;20198;-73
2022/01/31 02:51:33;;;;;;;22.03;20.83;;;;;;;;;;5094232;28;20802;-73
2022/01/31 02:54:00;;;;;;;22.10;20.80;;;;;;;;;;5094323;28;20193;-73
2022/01/31 02:56:28;;;;;;;21.23;20.10;;;;;;;;;;5094508;28;20194;-74
2022/01/31 02:58:55;;;;;;;20.80;19.60;;;;;;;;;;5094518;28;20277;-73
2022/01/31 03:01:21;;;;;;;24.30;22.57;;;;;;;;;;5094082;28;20276;-74
2022/01/31 03:03:49;;;;;;;24.17;22.47;;;;;;;;;;5094452;28;20229;-73
2022/01/31 03:06:16;;;;;;;22.47;21.17;;;;;;;;;;5094336;28;20276;-77
2022/01/31 03:08:43;;;;;;;21.60;20.40;;;;;;;;;;5094011;28;20244;-73
2022/01/31 03:11:09;;;;;;;22.43;21.20;;;;;;;;;;5093917;28;20320;-76
2022/01/31 03:13:37;;;;;;;22.83;21.40;;;;;;;;;;5093913;28;20261;-73
2022/01/31 03:16:04;;;;;;;23.40;21.83;;;;;;;;;;5094465;28;20194;-78
2022/01/31 03:18:32;;;;;;;22.60;21.30;;;;;;;;;;5094172;28;20232;-80
2022/01/31 03:20:58;;;;;;;21.40;20.30;;;;;;;;;;5094044;28;20197;-72
2022/01/31 03:23:25;;;;;;;21.57;20.47;;;;;;;;;;5094059;28;20285;-78
2022/01/31 03:25:52;;;;;;;23.67;22.23;;;;;;;;;;5093665;28;20325;-78
2022/01/31 03:28:18;;;;;;;23.57;21.97;;;;;;;;;;5093679;28;20667;-73
2022/01/31 03:30:46;;;;;;;21.10;20.00;;;;;;;;;;5093817;28;20229;-74
2022/01/31 03:33:13;;;;;;;21.17;20.07;;;;;;;;;;5093886;28;20213;-77
2022/01/31 03:35:40;;;;;;;20.80;19.70;;;;;;;;;;5093500;28;20591;-73
2022/01/31 03:38:07;;;;;;;20.30;19.30;;;;;;;;;;5093725;28;20232;-74
2022/01/31 03:40:33;;;;;;;22.80;21.43;;;;;;;;;;5093438;28;20290;-72
2022/01/31 03:43:00;;;;;;;22.20;21.00;;;;;;;;;;5093335;28;20241;-74
2022/01/31 03:45:32;;;;;;;22.00;20.80;;;;;;;;;;5093647;28;20276;-75
2022/01/31 03:48:00;;;;;;;22.50;21.20;;;;;;;;;;5093332;28;20193;-77
2022/01/31 03:50:27;;;;;;;22.10;20.77;;;;;;;;;;5093190;28;20194;-79
2022/01/31 03:52:54;;;;;;;21.40;20.23;;;;;;;;;;5093384;28;20233;-77
2022/01/31 03:55:21;;;;;;;22.30;21.10;;;;;;;;;;5093104;28;20252;-77
2022/01/31 03:57:48;;;;;;;20.93;19.83;;;;;;;;;;5093421;28;20200;-73
2022/01/31 04:00:15;;;;;;;22.97;21.23;;;;;;;;;;5092845;28;20236;-80
2022/01/31 04:02:42;;;;;;;21.93;20.73;;;;;;;;;;5093043;28;20284;-78
2022/01/31 04:05:11;;;;;;;21.13;20.03;;;;;;;;;;5092973;28;20294;-73
2022/01/31 04:07:37;;;;;;;21.70;20.50;;;;;;;;;;5093219;28;20277;-75
2022/01/31 04:10:05;;;;;;;22.27;20.83;;;;;;;;;;5092882;28;20194;-75
2022/01/31 04:12:31;;;;;;;22.80;20.90;;;;;;;;;;5093048;28;20687;-73
2022/01/31 04:14:58;;;;;;;21.57;20.37;;;;;;;;;;5093111;28;20232;-73
2022/01/31 04:17:25;;;;;;;21.07;19.97;;;;;;;;;;5092726;28;20284;-73
2022/01/31 04:19:52;;;;;;;21.47;20.17;;;;;;;;;;5092961;28;20194;-79
2022/01/31 04:22:23;;;;;;;20.43;19.33;;;;;;;;;;5092713;28;20255;-77
2022/01/31 04:24:54;;;;;;;19.63;18.63;;;;;;;;;;5092718;28;20277;-78
2022/01/31 04:27:23;;;;;;;20.43;19.33;;;;;;;;;;5092969;28;20281;-72
2022/01/31 04:29:50;;;;;;;20.80;19.70;;;;;;;;;;5092768;28;20197;-80
2022/01/31 04:32:17;;;;;;;20.90;19.70;;;;;;;;;;5093125;28;20290;-73
2022/01/31 04:34:44;;;;;;;20.73;19.63;;;;;;;;;;5093082;28;20250;-78
2022/01/31 04:37:10;;;;;;;21.90;20.40;;;;;;;;;;5092486;28;20193;-73
2022/01/31 04:39:39;;;;;;;20.50;19.40;;;;;;;;;;5092828;28;20193;-74
2022/01/31 04:42:06;;;;;;;20.40;19.30;;;;;;;;;;5092350;28;20194;-77
2022/01/31 04:44:33;;;;;;;19.87;18.83;;;;;;;;;;5092691;28;20194;-73
2022/01/31 04:47:00;;;;;;;19.50;18.50;;;;;;;;;;5092651;28;20281;-77
2022/01/31 04:49:27;;;;;;;20.07;19.00;;;;;;;;;;5092656;28;20229;-77
2022/01/31 04:51:54;;;;;;;20.33;19.23;;;;;;;;;;5092800;28;20248;-77
2022/01/31 04:54:20;;;;;;;19.53;18.53;;;;;;;;;;5092688;28;20252;-78
2022/01/31 04:56:48;;;;;;;19.87;18.77;;;;;;;;;;5092534;28;20223;-77
2022/01/31 04:59:17;;;;;;;19.60;18.50;;;;;;;;;;5092139;28;20196;-80
2022/01/31 05:01:46;;;;;;;19.70;18.63;;;;;;;;;;5092239;28;20256;-78
2022/01/31 05:04:12;;;;;;;19.60;18.60;;;;;;;;;;5092172;28;20200;-79
2022/01/31 05:06:41;;;;;;;19.60;18.60;;;;;;;;;;5092256;28;20654;-77
2022/01/31 05:09:09;;;;;;;20.57;19.47;;;;;;;;;;5092147;28;20230;-77
2022/01/31 05:11:36;;;;;;;19.30;18.30;;;;;;;;;;5092310;28;20221;-79
2022/01/31 05:14:04;;;;;;;18.97;17.97;;;;;;;;;;5092015;28;20210;-78
2022/01/31 05:16:31;;;;;;;18.30;17.40;;;;;;;;;;5091971;28;20189;-77
2022/01/31 05:18:58;;;;;;;19.47;18.27;;;;;;;;;;5091936;28;20197;-77
2022/01/31 05:21:24;;;;;;;21.43;20.43;;;;;;;;;;5092000;28;20202;-79
2022/01/31 05:23:51;;;;;;;19.20;18.30;;;;;;;;;;5091881;28;20190;-77
2022/01/31 05:26:18;;;;;;;20.80;19.70;;;;;;;;;;5091883;28;20284;-79
2022/01/31 05:28:45;;;;;;;21.10;19.53;;;;;;;;;;5092170;28;20671;-78
2022/01/31 05:31:13;;;;;;;20.60;19.50;;;;;;;;;;5092189;28;20190;-77
2022/01/31 05:33:39;;;;;;;20.83;19.73;;;;;;;;;;5092093;28;20225;-73
2022/01/31 05:36:07;;;;;;;23.77;22.53;;;;;;;;;;5091774;28;20181;-77
2022/01/31 05:38:37;;;;;;;21.87;20.60;;;;;;;;;;5091807;28;20198;-74
2022/01/31 05:41:07;;;;;;;20.50;19.50;;;;;;;;;;5092068;28;20637;-74
2022/01/31 05:43:33;;;;;;;21.90;20.70;;;;;;;;;;5092939;28;20198;-73
2022/01/31 05:46:00;;;;;;;20.37;19.37;;;;;;;;;;5095925;28;20228;-73
2022/01/31 05:48:28;;;;;;;20.93;19.83;;;;;;;;;;5095599;28;20281;-77
2022/01/31 05:50:55;;;;;;;19.43;18.17;;;;;;;;;;5095537;28;20229;-77
2022/01/31 05:53:22;;;;;;;20.13;18.93;;;;;;;;;;5095956;28;20263;-77
2022/01/31 05:55:48;;;;;;;22.27;21.07;;;;;;;;;;5095481;28;20284;-76
2022/01/31 05:58:15;;;;;;;22.20;21.00;;;;;;;;;;5095586;28;20200;-76
2022/01/31 06:00:42;;;;;;;21.47;20.27;;;;;;;;;;5095472;28;20646;-77
2022/01/31 06:03:09;;;;;;;21.87;20.67;;;;;;;;;;5095709;28;20255;-77
2022/01/31 06:05:37;;;;;;;23.90;22.37;;;;;;;;;;5095551;28;20721;-78
2022/01/31 06:08:04;;;;;;;23.17;22.07;;;;;;;;;;5095596;28;20194;-77
2022/01/31 06:10:32;;;;;;;24.03;22.83;;;;;;;;;;5095474;28;20277;-76
2022/01/31 06:12:59;;;;;;;27.33;25.83;;;;;;;;;;5095352;28;20229;-78
2022/01/31 06:15:26;;;;;;;28.60;26.87;;;;;;;;;;5095367;28;20251;-77
2022/01/31 06:17:52;;;;;;;21.60;20.43;;;;;;;;;;5094956;28;20582;-77
2022/01/31 06:20:19;;;;;;;21.37;20.17;;;;;;;;;;5095022;28;20194;-75
2022/01/31 06:22:51;;;;;;;20.27;19.17;;;;;;;;;;5094873;28;20586;-75
2022/01/31 06:25:18;;;;;;;23.37;21.47;;;;;;;;;;5095212;28;20284;-77
2022/01/31 06:27:45;;;;;;;21.30;20.20;;;;;;;;;;5094813;28;20231;-76
2022/01/31 06:30:12;;;;;;;21.00;19.90;;;;;;;;;;5095124;28;20247;-76
2022/01/31 06:32:39;;;;;;;21.40;20.30;;;;;;;;;;5095032;28;20249;-76
2022/01/31 06:35:06;;;;;;;22.03;20.83;;;;;;;;;;5094630;28;20284;-76
2022/01/31 06:37:33;;;;;;;23.77;21.93;;;;;;;;;;5094975;28;20194;-77
2022/01/31 06:40:01;;;;;;;22.70;20.50;;;;;;;;;;5094581;28;20694;-77
2022/01/31 06:42:28;;;;;;;20.80;19.70;;;;;;;;;;5094918;28;20592;-76
2022/01/31 06:44:55;;;;;;;21.00;19.90;;;;;;;;;;5094783;28;20251;-76
2022/01/31 06:47:23;;;;;;;20.40;19.30;;;;;;;;;;5094442;28;20612;-76
2022/01/31 06:49:49;;;;;;;21.40;20.30;;;;;;;;;;5094725;28;20201;-76
2022/01/31 06:52:16;;;;;;;21.60;20.50;;;;;;;;;;5094551;28;20691;-76
2022/01/31 06:54:43;;;;;;;22.37;21.17;;;;;;;;;;5094011;28;20193;-76
2022/01/31 06:57:12;;;;;;;21.67;20.37;;;;;;;;;;5094294;28;20200;-77
2022/01/31 06:59:38;;;;;;;24.07;21.73;;;;;;;;;;5094070;28;20243;-76
2022/01/31 07:02:05;;;;;;;23.07;21.63;;;;;;;;;;5094301;28;20674;-77
2022/01/31 07:04:32;;;;;;;23.87;22.27;;;;;;;;;;5094145;28;20689;-77
2022/01/31 07:06:59;;;;;;;23.70;22.37;;;;;;;;;;5094157;28;20193;-77
2022/01/31 07:09:26;;;;;;;22.40;21.20;;;;;;;;;;5094312;28;20198;-77
2022/01/31 07:11:56;;;;;;;24.13;22.63;;;;;;;;;;5093966;28;20233;-79
2022/01/31 07:14:30;;;;;;;23.63;22.27;;;;;;;;;;5094000;28;20281;-77
2022/01/31 07:16:58;;;;;;;25.87;24.30;;;;;;;;;;5093935;28;20196;-77
2022/01/31 07:19:27;;;;;;;25.93;24.23;;;;;;;;;;5094243;28;20197;-81
2022/01/31 07:21:54;;;;;;;24.97;23.47;;;;;;;;;;5094381;28;20202;-78
2022/01/31 07:24:24;;;;;;;24.50;23.10;;;;;;;;;;5093751;28;20752;-79
2022/01/31 07:26:51;;;;;;;24.93;23.53;;;;;;;;;;5093687;28;20201;-78
2022/01/31 07:29:19;;;;;;;24.23;22.83;;;;;;;;;;5094082;28;20204;-77
2022/01/31 07:31:48;;;;;;;24.07;22.87;;;;;;;;;;5093658;28;20719;-79
2022/01/31 07:34:15;;;;;;;23.47;22.03;;;;;;;;;;5093990;28;20248;-74
2022/01/31 07:36:42;;;;;;;22.83;21.23;;;;;;;;;;5093785;28;20722;-80
2022/01/31 07:39:09;;;;;;;24.43;22.53;;;;;;;;;;5094019;28;20251;-75
2022/01/31 07:41:36;;;;;;;23.80;22.50;;;;;;;;;;5095535;28;20193;-80
2022/01/31 07:44:03;;;;;;;25.17;23.50;;;;;;;;;;5094148;28;20193;-84
2022/01/31 07:46:30;;;;;;;23.57;22.27;;;;;;;;;;5094383;28;20247;-75
2022/01/31 07:48:58;;;;;;;27.63;25.97;;;;;;;;;;5094399;28;20220;-83
2022/01/31 07:51:28;;;;;;;27.10;25.67;;;;;;;;;;5094577;28;20229;-79
2022/01/31 07:53:55;;;;;;;29.63;27.83;;;;;;;;;;5094276;28;20225;-77
2022/01/31 07:56:22;;;;;;;29.63;27.83;;;;;;;;;;5094011;28;20255;-76
2022/01/31 07:58:49;;;;;;;29.53;27.53;;;;;;;;;;5095231;28;20205;-81
2022/01/31 08:01:16;;;;;;;28.10;25.47;;;;;;;;;;5093319;28;20616;-80
2022/01/31 08:03:43;;;;;;;25.33;24.03;;;;;;;;;;5093977;28;20262;-82
2022/01/31 08:06:12;;;;;;;26.37;24.60;;;;;;;;;;5093021;28;20204;-72
2022/01/31 08:08:39;;;;;;;24.47;23.17;;;;;;;;;;5094354;28;20663;-84
2022/01/31 08:11:05;;;;;;;25.13;23.33;;;;;;;;;;5093258;28;20198;-83
2022/01/31 08:13:33;;;;;;;24.40;23.20;;;;;;;;;;5093143;28;20233;-81
2022/01/31 08:16:09;;;;;;;25.77;23.97;;;;;;;;;;5093244;28;20190;-78
2022/01/31 08:18:37;;;;;;;26.57;24.67;;;;;;;;;;5092831;28;20277;-83
2022/01/31 08:21:04;;;;;;;26.00;23.20;;;;;;;;;;5093415;28;20194;-84
2022/01/31 08:23:33;;;;;;;25.93;24.53;;;;;;;;;;5092730;28;20200;-82
2022/01/31 08:26:01;;;;;;;26.70;25.20;;;;;;;;;;5092727;28;20196;-84
2022/01/31 08:28:34;;;;;;;26.73;25.30;;;;;;;;;;5092950;28;20189;-82
2022/01/31 08:31:07;;;;;;;27.33;25.83;;;;;;;;;;5092754;28;20182;-84
2022/01/31 08:33:36;;;;;;;27.20;25.80;;;;;;;;;;5092855;28;20683;-83
2022/01/31 08:36:04;;;;;;;34.27;26.20;;;;;;;;;;5092595;28;20704;-85
2022/01/31 08:38:33;;;;;;;26.17;24.67;;;;;;;;;;5092620;28;20194;-82
2022/01/31 08:41:00;;;;;;;24.77;23.17;;;;;;;;;;5092766;28;20226;-85
2022/01/31 08:43:27;;;;;;;27.37;25.67;;;;;;;;;;5092965;28;20605;-85
2022/01/31 08:45:55;;;;;;;27.17;25.23;;;;;;;;;;5092829;28;20225;-83
2022/01/31 08:48:22;;;;;;;27.30;25.40;;;;;;;;;;5092725;28;20225;-81
2022/01/31 08:50:49;;;;;;;25.87;24.27;;;;;;;;;;5092626;28;20702;-81
2022/01/31 08:53:16;;;;;;;24.63;23.23;;;;;;;;;;5093062;28;20283;-81
2022/01/31 08:55:46;;;;;;;27.90;26.40;;;;;;;;;;5094618;28;20285;-82
2022/01/31 08:58:13;;;;;;;29.47;27.03;;;;;;;;;;5094163;28;20251;-81
2022/01/31 09:00:40;;;;;;;27.90;26.40;;;;;;;;;;5093375;28;20265;-80
2022/01/31 09:03:21;;;;;;;25.97;24.53;;;;;;;;;;5093978;28;20197;-79
2022/01/31 09:05:48;;;;;;;27.67;25.33;;;;;;;;;;5092673;28;20217;-77
2022/01/31 09:08:15;;;;;;;26.07;24.57;;;;;;;;;;5092597;28;20194;-79
2022/01/31 09:10:43;;;;;;;25.83;24.23;;;;;;;;;;5092321;28;20190;-74
2022/01/31 09:13:14;;;;;;;25.70;23.60;;;;;;;;;;5092266;28;20229;-76
2022/01/31 09:15:41;;;;;;;27.60;26.10;;;;;;;;;;5092432;28;20217;-76
2022/01/31 09:18:08;;;;;;;28.13;26.30;;;;;;;;;;5094527;28;20311;-76
2022/01/31 09:20:35;;;;;;;27.23;25.63;;;;;;;;;;5096550;28;20619;-76
2022/01/31 09:23:02;;;;;;;27.70;26.20;;;;;;;;;;5096399;28;20219;-76
2022/01/31 09:25:30;;;;;;;25.37;23.73;;;;;;;;;;5096526;28;20190;-76
2022/01/31 09:27:56;;;;;;;24.97;23.47;;;;;;;;;;5096302;28;20292;-78
2022/01/31 09:30:26;;;;;;;25.13;23.63;;;;;;;;;;5096136;28;20679;-79
2022/01/31 09:32:53;;;;;;;24.90;23.43;;;;;;;;;;5096202;28;20202;-81
2022/01/31 09:35:20;;;;;;;24.10;22.70;;;;;;;;;;5096145;28;20206;-77
2022/01/31 09:37:47;;;;;;;24.50;22.70;;;;;;;;;;5096132;28;20190;-76
2022/01/31 09:40:18;;;;;;;23.43;22.13;;;;;;;;;;5096049;28;20202;-79
2022/01/31 09:43:04;;;;;;;24.10;22.80;;;;;;;;;;5096084;28;20217;-78
2022/01/31 09:45:53;;;;;;;43.93;26.47;;;;;;;;;;5095751;28;20667;-78
2022/01/31 09:48:35;;;;;;;26.00;24.27;;;;;;;;;;5096021;28;20198;-76
2022/01/31 09:51:03;;;;;;;23.03;21.53;;;;;;;;;;5096033;28;20209;-78
2022/01/31 09:53:31;;;;;;;25.73;23.87;;;;;;;;;;5095519;28;20775;-77
2022/01/31 09:55:58;;;;;;;27.83;25.63;;;;;;;;;;5095819;28;20197;-78
2022/01/31 09:58:29;;;;;;;23.63;22.33;;;;;;;;;;5095735;28;20627;-77
2022/01/31 10:01:08;;;;;;;23.30;22.00;;;;;;;;;;5095369;28;20279;-77
2022/01/31 10:03:44;;;;;;;25.03;23.33;;;;;;;;;;5095893;28;20289;-77
2022/01/31 10:06:19;;;;;;;25.67;23.70;;;;;;;;;;5095322;28;20273;-79
2022/01/31 10:08:46;;;;;;;26.00;24.30;;;;;;;;;;5095372;28;20185;-77
2022/01/31 10:11:27;;;;;;;24.43;22.93;;;;;;;;;;5095299;28;20190;-76
2022/01/31 10:16:45;;;;;;;26.70;25.20;;;;;;;;;;5095429;28;20627;-77
2022/01/31 10:19:12;;;;;;;27.37;24.47;;;;;;;;;;5095638;28;20181;-77
2022/01/31 10:21:54;;;;;;;26.07;24.53;;;;;;;;;;5095300;28;20226;-77
2022/01/31 10:24:21;;;;;;;25.03;23.53;;;;;;;;;;5094977;28;20236;-76
2022/01/31 10:26:48;;;;;;;24.10;22.70;;;;;;;;;;5095214;28;20232;-76
2022/01/31 10:29:15;;;;;;;25.10;23.70;;;;;;;;;;5094401;28;20193;-76
2022/01/31 10:31:55;;;;;;;25.67;23.80;;;;;;;;;;5094797;28;20804;-76
2022/01/31 10:34:24;;;;;;;26.53;25.03;;;;;;;;;;5095118;28;20296;-77
2022/01/31 10:36:51;;;;;;;24.40;23.00;;;;;;;;;;5094724;28;20200;-75
2022/01/31 10:45:21;;;;;;;25.73;24.23;;;;;;;;;;5094655;28;20227;-76
2022/01/31 10:50:48;;;;;;;24.70;22.67;;;;;;;;;;5094835;28;20580;-80
2022/01/31 10:53:15;;;;;;;25.17;23.67;;;;;;;;;;5094675;28;20196;-77
2022/01/31 10:55:41;;;;;;;26.00;24.50;;;;;;;;;;5094973;28;20259;-76
2022/01/31 10:58:09;;;;;;;24.50;23.10;;;;;;;;;;5094633;28;20226;-76
2022/01/31 11:00:36;;;;;;;23.10;21.80;;;;;;;;;;5094196;28;20268;-79
2022/01/31 11:03:18;;;;;;;24.63;23.23;;;;;;;;;;5094461;28;20194;-77
2022/01/31 11:05:49;;;;;;;24.87;23.27;;;;;;;;;;5094008;28;20280;-78
2022/01/31 11:08:16;;;;;;;25.13;23.23;;;;;;;;;;5094561;28;20187;-77
2022/01/31 11:10:43;;;;;;;25.43;23.63;;;;;;;;;;5094388;28;20229;-78
2022/01/31 11:13:10;;;;;;;26.03;24.13;;;;;;;;;;5094184;28;20204;-78
2022/01/31 11:15:37;;;;;;;24.67;23.17;;;;;;;;;;5094014;28;20659;-79
2022/01/31 11:18:06;;;;;;;26.17;23.77;;;;;;;;;;5093939;28;20236;-78
2022/01/31 11:20:33;;;;;;;26.90;24.47;;;;;;;;;;5093801;28;20229;-81
2022/01/31 11:23:02;;;;;;;27.20;25.13;;;;;;;;;;5094160;28;20232;-76
2022/01/31 11:25:29;;;;;;;25.27;23.67;;;;;;;;;;5093806;28;20254;-77
2022/01/31 11:27:59;;;;;;;26.27;24.40;;;;;;;;;;5093947;28;20742;-77
2022/01/31 11:30:25;;;;;;;25.77;23.73;;;;;;;;;;5093674;28;20193;-77
2022/01/31 11:32:53;;;;;;;25.87;23.97;;;;;;;;;;5093923;28;20675;-77
2022/01/31 11:35:19;;;;;;;26.10;24.40;;;;;;;;;;5093844;28;20225;-77
2022/01/31 11:37:46;;;;;;;26.57;24.70;;;;;;;;;;5093502;28;20267;-76
2022/01/31 11:40:14;;;;;;;26.10;24.60;;;;;;;;;;5093396;28;20194;-76
2022/01/31 11:42:42;;;;;;;26.47;24.23;;;;;;;;;;5092823;28;20193;-77
2022/01/31 11:45:11;;;;;;;25.23;23.73;;;;;;;;;;5093644;28;20194;-76
2022/01/31 11:47:39;;;;;;;25.10;23.60;;;;;;;;;;5093586;28;20239;-76
2022/01/31 11:50:06;;;;;;;23.63;22.23;;;;;;;;;;5093249;28;20194;-75
2022/01/31 11:52:42;;;;;;;24.67;23.17;;;;;;;;;;5093274;28;20276;-75
2022/01/31 11:55:12;;;;;;;26.43;24.30;;;;;;;;;;5093456;28;20304;-75
2022/01/31 11:57:40;;;;;;;24.43;22.43;;;;;;;;;;5093461;28;20220;-78
2022/01/31 12:00:08;;;;;;;24.20;22.70;;;;;;;;;;5093199;28;20229;-78
2022/01/31 12:02:41;;;;;;;25.07;23.47;;;;;;;;;;5093446;28;20255;-76
2022/01/31 12:05:08;;;;;;;24.40;22.70;;;;;;;;;;5093347;28;20194;-76
2022/01/31 12:07:39;;;;;;;21.60;20.30;;;;;;;;;;5093268;28;20198;-75
2022/01/31 12:10:07;;;;;;;22.97;21.57;;;;;;;;;;5093271;28;20186;-75
2022/01/31 12:12:46;;;;;;;21.87;20.57;;;;;;;;;;5092865;28;20198;-74
2022/01/31 12:15:44;;;;;;;22.50;21.20;;;;;;;;;;5093129;28;20221;-75
2022/01/31 12:18:40;;;;;;;21.37;20.10;;;;;;;;;;5093117;28;20197;-74
2022/01/31 12:23:52;;;;;;;25.20;23.50;;;;;;;;;;5093121;28;20185;-75
2022/01/31 12:26:43;;;;;;;25.40;23.90;;;;;;;;;;5092852;28;20200;-75
2022/01/31 12:29:10;;;;;;;23.20;21.80;;;;;;;;;;5082290;28;20251;-76
2022/01/31 12:31:41;;;;;;;24.10;22.60;;;;;;;;;;5092544;28;20225;-76
2022/01/31 12:34:10;;;;;;;24.77;23.27;;;;;;;;;;5092582;28;20267;-77
2022/01/31 12:36:50;;;;;;;25.40;23.80;;;;;;;;;;5092569;28;20225;-75
2022/01/31 12:39:38;;;;;;;24.20;22.80;;;;;;;;;;5092531;28;20194;-75
2022/01/31 12:42:30;;;;;;;22.63;21.33;;;;;;;;;;5092446;28;20276;-75
2022/01/31 12:44:56;;;;;;;24.87;23.20;;;;;;;;;;5092455;28;20190;-77
2022/01/31 12:47:24;;;;;;;23.43;22.03;;;;;;;;;;5092403;28;20729;-75
2022/01/31 12:50:06;;;;;;;26.20;23.87;;;;;;;;;;5092673;28;20231;-76
2022/01/31 12:52:35;;;;;;;24.70;23.20;;;;;;;;;;5091774;28;20271;-75
2022/01/31 12:55:09;;;;;;;25.37;23.73;;;;;;;;;;5092436;28;20257;-76
2022/01/31 12:57:46;;;;;;;24.80;23.30;;;;;;;;;;5092276;28;20185;-75
2022/01/31 13:00:14;;;;;;;25.17;23.67;;;;;;;;;;5091972;28;20229;-75
2022/01/31 13:02:49;;;;;;;25.60;23.80;;;;;;;;;;5092166;28;20276;-76
2022/01/31 13:05:16;;;;;;;26.23;24.70;;;;;;;;;;5092113;28;20743;-74
2022/01/31 13:07:42;;;;;;;26.57;24.97;;;;;;;;;;5092124;28;20267;-76
2022/01/31 13:10:10;;;;;;;25.00;23.50;;;;;;;;;;5092143;28;20190;-76
2022/01/31 13:12:37;;;;;;;25.47;23.87;;;;;;;;;;5092310;28;20204;-75
2022/01/31 13:15:04;;;;;;;24.50;23.00;;;;;;;;;;5091929;28;20643;-76
2022/01/31 13:17:31;;;;;;;22.70;21.30;;;;;;;;;;5091969;28;20280;-75
2022/01/31 13:19:59;;;;;;;23.30;21.90;;;;;;;;;;5092303;28;20194;-75
2022/01/31 13:22:30;;;;;;;24.17;22.47;;;;;;;;;;5092299;28;20193;-75
2022/01/31 13:24:57;;;;;;;22.60;21.20;;;;;;;;;;5092024;28;20189;-76
2022/01/31 13:27:30;;;;;;;23.37;21.97;;;;;;;;;;5092303;28;20194;-75
2022/01/31 13:29:56;;;;;;;23.73;22.20;;;;;;;;;;5092206;28;20268;-75
2022/01/31 13:32:24;;;;;;;22.17;20.87;;;;;;;;;;5092207;28;20225;-75
2022/01/31 13:34:52;;;;;;;24.20;22.63;;;;;;;;;;5092045;28;20253;-74
2022/01/31 13:37:41;;;;;;;23.93;22.53;;;;;;;;;;5091772;28;20284;-75
2022/01/31 13:40:10;;;;;;;25.30;23.80;;;;;;;;;;5091863;28;20236;-74
2022/01/31 13:42:38;;;;;;;26.60;24.90;;;;;;;;;;5091753;28;20656;-75
2022/01/31 13:45:06;;;;;;;23.77;22.37;;;;;;;;;;5091711;28;20255;-75
2022/01/31 13:47:40;;;;;;;24.63;23.23;;;;;;;;;;5092162;28;20606;-75
2022/01/31 13:50:14;;;;;;;23.67;22.27;;;;;;;;;;5092034;28;20194;-75
2022/01/31 13:52:51;;;;;;;24.47;22.97;;;;;;;;;;5092022;28;20182;-76
2022/01/31 13:55:18;;;;;;;24.30;22.90;;;;;;;;;;5091939;28;20298;-75
2022/01/31 13:57:46;;;;;;;27.33;24.43;;;;;;;;;;5091946;28;20236;-75
2022/01/31 14:00:13;;;;;;;23.50;22.20;;;;;;;;;;5091556;28;20309;-75
2022/01/31 14:02:40;;;;;;;24.40;22.90;;;;;;;;;;5091863;28;20281;-75
2022/01/31 14:05:19;;;;;;;23.17;21.87;;;;;;;;;;5093611;28;20233;-74
2022/01/31 14:07:45;;;;;;;23.80;22.50;;;;;;;;;;5095351;28;20616;-75
2022/01/31 14:10:26;;;;;;;24.00;22.70;;;;;;;;;;5095569;28;20226;-75
2022/01/31 14:12:56;;;;;;;24.03;22.70;;;;;;;;;;5095216;28;20223;-75
2022/01/31 14:15:23;;;;;;;24.10;22.80;;;;;;;;;;5095340;28;20249;-75
2022/01/31 14:17:50;;;;;;;24.93;23.53;;;;;;;;;;5095477;28;20276;-75
2022/01/31 14:20:17;;;;;;;25.93;24.03;;;;;;;;;;5095402;28;20198;-74
2022/01/31 14:22:43;;;;;;;23.00;21.70;;;;;;;;;;5094963;28;20219;-75
2022/01/31 14:25:10;;;;;;;23.00;21.70;;;;;;;;;;5095238;28;20202;-75
2022/01/31 14:27:49;;;;;;;23.13;21.83;;;;;;;;;;5094897;28;20194;-75
2022/01/31 14:30:19;;;;;;;23.93;22.63;;;;;;;;;;5095219;28;20217;-75
2022/01/31 14:32:56;;;;;;;23.10;21.80;;;;;;;;;;5094801;28;20190;-75
2022/01/31 14:35:23;;;;;;;24.03;22.73;;;;;;;;;;5094744;28;20252;-74
2022/01/31 14:37:52;;;;;;;22.23;21.03;;;;;;;;;;5094619;28;20229;-75
2022/01/31 14:40:39;;;;;;;22.43;21.23;;;;;;;;;;5094930;28;20209;-74